Time;durP1;ratioP1;P1;durP2;ratioP2;P2;SDS_P1;SDS_P2;PMS_P1;PMS_P2;Temp;Humidity;BMP_temperature;BMP_pressure;BME280_temperature;BME280_humidity;BME280_pressure;Samples;Min_cycle;Max_cycle;Signal;HPM_P1;HPM_P2
2023/01/20 00:01:37;;;;;;;;;;;;;;;0.52;100.00;99644.03;5567051;32;35208;-71
2023/01/20 00:04:43;;;;;;;;;;;;;;;0.58;100.00;99644.34;5553659;32;34306;-71
2023/01/20 00:07:50;;;;;;;;;;;;;;;0.53;100.00;99637.88;5567304;32;34734;-71
2023/01/20 00:11:05;;;;;;;;;;;;;;;0.59;100.00;99637.38;5567094;32;34886;-71
2023/01/20 00:14:14;;;;;;;;;;;;;;;0.60;100.00;99633.81;5566857;32;34441;-71
2023/01/20 00:17:19;;;;;;;;;;;;;;;0.53;100.00;99632.66;5546281;32;34640;-71
2023/01/20 00:20:24;;;;;;;;;;;;;;;0.59;100.00;99632.16;5547095;32;34561;-71
2023/01/20 00:23:31;;;;;;;;;;;;;;;0.50;100.00;99633.72;5546603;32;35209;-71
2023/01/20 00:26:37;;;;;;;;;;;;;;;0.52;100.00;99639.66;5547148;32;34601;-71
2023/01/20 00:29:49;;;;;;;;;;;;;;;0.48;100.00;99656.50;5547120;32;34523;-72
2023/01/20 00:32:53;;;;;;;;;;;;;;;0.38;100.00;99655.56;5546429;32;34525;-72
2023/01/20 00:35:57;;;;;;;;;;;;;;;0.53;100.00;99669.19;5547061;32;34537;-71
2023/01/20 00:39:01;;;;;;;;;;;;;;;0.53;100.00;99669.19;5546344;32;34207;-71
2023/01/20 00:42:05;;;;;;;;;;;;;;;0.47;100.00;99675.72;5546092;32;34572;-71
2023/01/20 00:45:10;;;;;;;;;;;;;;;0.46;100.00;99678.44;5545997;32;34548;-71
2023/01/20 00:48:15;;;;;;;;;;;;;;;0.39;100.00;99678.91;5546745;32;34389;-70
2023/01/20 00:51:22;;;;;;;;;;;;;;;0.39;100.00;99688.53;5546588;32;34278;-71
2023/01/20 00:54:25;;;;;;;;;;;;;;;0.42;100.00;99689.13;5546681;32;34556;-71
2023/01/20 00:57:29;;;;;;;;;;;;;;;0.63;100.00;99693.63;5549397;32;34274;-71
2023/01/20 01:00:36;;;;;;;;;;;;;;;0.59;100.00;99693.00;5549483;32;34271;-70
2023/01/20 01:03:43;;;;;;;;;;;;;;;0.60;100.00;99699.06;5549306;32;35083;-71
2023/01/20 01:06:53;;;;;;;;;;;;;;;0.56;100.00;99687.22;5548652;32;34541;-72
2023/01/20 01:10:01;;;;;;;;;;;;;;;0.61;100.00;99675.44;5548614;32;34567;-71
2023/01/20 01:13:12;;;;;;;;;;;;;;;0.54;100.00;99668.22;5548427;32;35032;-71
2023/01/20 01:16:19;;;;;;;;;;;;;;;0.61;100.00;99651.97;5537353;32;33592;-71
2023/01/20 01:19:27;;;;;;;;;;;;;;;0.55;100.00;99652.44;5568790;32;35106;-71
2023/01/20 01:22:35;;;;;;;;;;;;;;;0.71;100.00;99659.88;5568584;32;34538;-72
2023/01/20 01:25:42;;;;;;;;;;;;;;;0.52;100.00;99649.25;5555056;32;34498;-71
2023/01/20 01:28:50;;;;;;;;;;;;;;;0.48;100.00;99640.03;5568447;32;35117;-71
2023/01/20 01:32:00;;;;;;;;;;;;;;;0.44;100.00;99642.03;5568312;32;34187;-71
2023/01/20 01:35:07;;;;;;;;;;;;;;;0.46;100.00;99634.09;5568368;32;34427;-71
2023/01/20 01:38:15;;;;;;;;;;;;;;;0.38;100.00;99621.66;5568419;32;34258;-71
2023/01/20 01:41:21;;;;;;;;;;;;;;;0.38;100.00;99619.87;5568542;32;35042;-72
2023/01/20 01:44:31;;;;;;;;;;;;;;;0.37;100.00;99626.03;5568473;32;34350;-71
2023/01/20 01:47:43;;;;;;;;;;;;;;;0.33;100.00;99631.62;5542189;32;35098;-71
2023/01/20 01:50:56;;;;;;;;;;;;;;;0.35;100.00;99621.88;5568289;32;34549;-72
2023/01/20 01:54:07;;;;;;;;;;;;;;;0.31;100.00;99623.91;5568395;32;34633;-71
2023/01/20 01:57:12;;;;;;;;;;;;;;;0.26;100.00;99613.00;5568439;32;34967;-71
2023/01/20 02:00:20;;;;;;;;;;;;;;;0.24;100.00;99604.47;5568277;32;34778;-71
2023/01/20 02:03:35;;;;;;;;;;;;;;;0.19;100.00;99603.19;5568253;32;34873;-71
2023/01/20 02:06:45;;;;;;;;;;;;;;;0.18;100.00;99599.75;5567918;32;35482;-71
2023/01/20 02:09:53;;;;;;;;;;;;;;;0.22;100.00;99598.56;5554981;32;35004;-71
2023/01/20 02:13:02;;;;;;;;;;;;;;;0.19;100.00;99609.25;5568183;31;35019;-71
2023/01/20 02:16:24;;;;;;;;;;;;;;;0.20;100.00;99592.62;5567802;32;35207;-70
2023/01/20 02:19:35;;;;;;;;;;;;;;;0.22;100.00;99598.56;5568287;32;34364;-72
2023/01/20 02:22:56;;;;;;;;;;;;;;;0.12;100.00;99599.41;5568319;32;34573;-71
2023/01/20 02:26:35;;;;;;;;;;;;;;;0.05;100.00;99591.22;5568183;32;35213;-71
2023/01/20 02:29:44;;;;;;;;;;;;;;;0.03;100.00;99595.75;5555939;32;34404;-71
2023/01/20 02:32:55;;;;;;;;;;;;;;;0.08;100.00;99600.59;5568172;32;34601;-71
2023/01/20 02:36:07;;;;;;;;;;;;;;;0.11;100.00;99605.56;5554698;32;35117;-71
2023/01/20 02:39:17;;;;;;;;;;;;;;;0.17;100.00;99605.09;5554680;32;34347;-71
2023/01/20 02:42:41;;;;;;;;;;;;;;;0.22;100.00;99601.16;5567945;32;34864;-71
2023/01/20 02:45:59;;;;;;;;;;;;;;;0.34;100.00;99605.41;5554819;32;34971;-71
2023/01/20 02:49:12;;;;;;;;;;;;;;;0.25;100.00;99605.28;5567971;32;35195;-71
2023/01/20 02:52:25;;;;;;;;;;;;;;;0.29;100.00;99604.94;5553866;32;33635;-71
2023/01/20 02:55:37;;;;;;;;;;;;;;;0.28;100.00;99615.50;5567855;32;35218;-71
2023/01/20 02:58:49;;;;;;;;;;;;;;;0.26;100.00;99605.19;5554807;32;34737;-71
2023/01/20 03:01:57;;;;;;;;;;;;;;;0.28;100.00;99613.72;5554368;32;35218;-72
2023/01/20 03:05:06;;;;;;;;;;;;;;;0.35;100.00;99620.09;5567951;32;34646;-71
2023/01/20 03:08:13;;;;;;;;;;;;;;;0.40;100.00;99625.78;5554553;32;34857;-71
2023/01/20 03:11:22;;;;;;;;;;;;;;;0.48;100.00;99624.38;5567860;32;34965;-72
2023/01/20 03:14:28;;;;;;;;;;;;;;;0.49;100.00;99631.22;5554357;32;34561;-72
2023/01/20 03:17:36;;;;;;;;;;;;;;;0.43;100.00;99636.00;5547154;32;34521;-72
2023/01/20 03:20:43;;;;;;;;;;;;;;;0.54;100.00;99631.69;5534914;32;34565;-72
2023/01/20 03:23:58;;;;;;;;;;;;;;;0.48;100.00;99642.63;5548126;32;34409;-73
2023/01/20 03:27:05;;;;;;;;;;;;;;;0.40;100.00;99651.03;5548032;32;34530;-72
2023/01/20 03:30:13;;;;;;;;;;;;;;;0.41;100.00;99658.75;5548092;32;34561;-71
2023/01/20 03:33:20;;;;;;;;;;;;;;;0.48;100.00;99647.84;5548123;32;34383;-70
2023/01/20 03:36:32;;;;;;;;;;;;;;;0.58;100.00;99651.37;5547302;32;34988;-70
2023/01/20 03:39:42;;;;;;;;;;;;;;;0.55;100.00;99656.84;5548061;32;34946;-73
2023/01/20 03:43:00;;;;;;;;;;;;;;;0.59;100.00;99658.25;5547890;32;34969;-71
2023/01/20 03:46:15;;;;;;;;;;;;;;;0.40;100.00;99654.50;5548012;32;34644;-70
2023/01/20 03:49:27;;;;;;;;;;;;;;;0.54;100.00;99650.78;5547942;32;34265;-70
2023/01/20 03:52:33;;;;;;;;;;;;;;;0.52;100.00;99650.09;5547743;32;34474;-70
2023/01/20 03:56:16;;;;;;;;;;;;;;;0.49;100.00;99637.28;5547688;32;34594;-70
2023/01/20 03:59:25;;;;;;;;;;;;;;;0.55;100.00;99639.41;5542208;32;34791;-70
2023/01/20 04:02:35;;;;;;;;;;;;;;;0.53;100.00;99638.72;5547373;32;35166;-73
2023/01/20 04:05:46;;;;;;;;;;;;;;;0.62;100.00;99624.91;5547458;32;35588;-72
2023/01/20 04:08:55;;;;;;;;;;;;;;;0.54;100.00;99629.91;5547368;32;34628;-71
2023/01/20 04:12:01;;;;;;;;;;;;;;;0.58;100.00;99626.09;5546665;32;35117;-72
2023/01/20 04:15:09;;;;;;;;;;;;;;;0.57;100.00;99627.06;5547508;32;34721;-70
2023/01/20 04:18:17;;;;;;;;;;;;;;;0.57;100.00;99621.00;5561853;32;34946;-70
2023/01/20 04:21:32;;;;;;;;;;;;;;;0.49;100.00;99629.44;5567042;32;34502;-71
2023/01/20 04:24:51;;;;;;;;;;;;;;;0.57;100.00;99621.84;5566733;32;35009;-70
2023/01/20 04:27:57;;;;;;;;;;;;;;;0.49;100.00;99631.22;5566773;32;34252;-71
2023/01/20 04:31:08;;;;;;;;;;;;;;;0.35;100.00;99632.31;5568534;32;34393;-70
2023/01/20 04:34:32;;;;;;;;;;;;;;;0.42;100.00;99636.94;5569323;32;34563;-71
2023/01/20 04:37:40;;;;;;;;;;;;;;;0.40;100.00;99638.84;5568998;32;35279;-70
2023/01/20 04:40:48;;;;;;;;;;;;;;;0.44;100.00;99634.19;5568983;32;35141;-71
2023/01/20 04:43:59;;;;;;;;;;;;;;;0.44;100.00;99629.81;5568886;32;35125;-72
2023/01/20 04:47:04;;;;;;;;;;;;;;;0.59;100.00;99632.97;5568922;32;34574;-70
2023/01/20 04:50:13;;;;;;;;;;;;;;;0.56;100.00;99638.44;5569153;32;35227;-70
2023/01/20 04:53:19;;;;;;;;;;;;;;;0.56;100.00;99642.84;5568982;32;34978;-70
2023/01/20 04:56:27;;;;;;;;;;;;;;;0.50;100.00;99636.31;5555526;32;34725;-70
2023/01/20 04:59:36;;;;;;;;;;;;;;;0.54;100.00;99635.13;5568592;32;34549;-69
2023/01/20 05:02:47;;;;;;;;;;;;;;;0.59;100.00;99626.94;5555591;32;34590;-69
2023/01/20 05:05:56;;;;;;;;;;;;;;;0.62;100.00;99622.31;5568739;32;34474;-70
2023/01/20 05:09:03;;;;;;;;;;;;;;;0.57;100.00;99606.19;5568571;32;33410;-70
2023/01/20 05:12:11;;;;;;;;;;;;;;;0.67;100.00;99591.44;5568592;32;34419;-71
2023/01/20 05:15:19;;;;;;;;;;;;;;;0.59;100.00;99588.59;5555460;32;35163;-69
2023/01/20 05:18:27;;;;;;;;;;;;;;;0.60;100.00;99587.66;5568322;32;33993;-71
2023/01/20 05:21:39;;;;;;;;;;;;;;;0.63;100.00;99584.78;5568670;32;35087;-70
2023/01/20 05:24:46;;;;;;;;;;;;;;;0.57;100.00;99582.69;5553756;32;34863;-70
2023/01/20 05:27:52;;;;;;;;;;;;;;;0.54;100.00;99584.72;5568959;32;34528;-69
2023/01/20 05:31:02;;;;;;;;;;;;;;;0.64;100.00;99589.06;5555571;32;34261;-71
2023/01/20 05:34:11;;;;;;;;;;;;;;;0.68;100.00;99595.69;5568603;32;34429;-71
2023/01/20 05:37:19;;;;;;;;;;;;;;;0.73;100.00;99590.09;5568702;32;34694;-69
2023/01/20 05:40:25;;;;;;;;;;;;;;;0.81;100.00;99591.16;5554841;32;34761;-70
2023/01/20 05:43:31;;;;;;;;;;;;;;;0.72;100.00;99598.91;5554408;32;35040;-71
2023/01/20 05:46:36;;;;;;;;;;;;;;;0.83;100.00;99601.44;5554601;32;34036;-70
2023/01/20 05:49:43;;;;;;;;;;;;;;;0.69;100.00;99602.56;5568266;32;34603;-73
2023/01/20 05:52:48;;;;;;;;;;;;;;;0.95;100.00;99600.47;5568314;32;34540;-70
2023/01/20 05:56:04;;;;;;;;;;;;;;;0.99;100.00;99593.19;5555045;32;34573;-70
2023/01/20 05:59:13;;;;;;;;;;;;;;;0.80;100.00;99606.94;5554268;32;33246;-70
2023/01/20 06:02:18;;;;;;;;;;;;;;;0.92;100.00;99607.72;5568081;32;34453;-71
2023/01/20 06:05:23;;;;;;;;;;;;;;;1.00;100.00;99600.91;5541608;32;32901;-70
2023/01/20 06:08:30;;;;;;;;;;;;;;;1.18;100.00;99599.38;5568189;32;35002;-71
2023/01/20 06:11:37;;;;;;;;;;;;;;;1.30;100.00;99610.63;5554394;32;34109;-71
2023/01/20 06:14:44;;;;;;;;;;;;;;;1.30;100.00;99598.38;5553327;32;32834;-71
2023/01/20 06:17:51;;;;;;;;;;;;;;;1.23;100.00;99597.22;5566862;32;34018;-70
2023/01/20 06:20:57;;;;;;;;;;;;;;;1.20;100.00;99599.28;5554013;32;34890;-70
2023/01/20 06:24:03;;;;;;;;;;;;;;;1.24;100.00;99598.88;5553820;32;34522;-70
2023/01/20 06:27:09;;;;;;;;;;;;;;;1.33;100.00;99596.44;5554559;32;34556;-71
2023/01/20 06:30:17;;;;;;;;;;;;;;;1.33;100.00;99599.06;5554529;32;35176;-71
2023/01/20 06:33:20;;;;;;;;;;;;;;;1.27;100.00;99598.63;5552880;32;33657;-70
2023/01/20 06:36:23;;;;;;;;;;;;;;;1.35;100.00;99594.56;5567928;32;34300;-70
2023/01/20 06:39:30;;;;;;;;;;;;;;;1.36;100.00;99594.41;5554609;32;34558;-70
2023/01/20 06:42:36;;;;;;;;;;;;;;;1.47;100.00;99594.34;5540517;32;34825;-71
2023/01/20 06:45:39;;;;;;;;;;;;;;;1.43;100.00;99603.41;5567212;32;34793;-71
2023/01/20 06:48:44;;;;;;;;;;;;;;;1.39;100.00;99609.00;5554320;32;33981;-70
2023/01/20 06:51:49;;;;;;;;;;;;;;;1.55;100.00;99610.19;5553957;32;35177;-70
2023/01/20 06:54:55;;;;;;;;;;;;;;;1.51;100.00;99611.41;5553527;32;34568;-71
2023/01/20 06:58:00;;;;;;;;;;;;;;;1.54;100.00;99621.63;5567648;32;34369;-69
2023/01/20 07:01:10;;;;;;;;;;;;;;;1.55;100.00;99622.47;5566793;32;35020;-71
2023/01/20 07:04:14;;;;;;;;;;;;;;;1.54;100.00;99629.47;5540955;32;33277;-70
2023/01/20 07:07:19;;;;;;;;;;;;;;;1.63;100.00;99630.47;5563701;31;34474;-69
2023/01/20 07:10:23;;;;;;;;;;;;;;;1.64;100.00;99627.75;5566433;32;34678;-70
2023/01/20 07:13:28;;;;;;;;;;;;;;;1.71;100.00;99633.25;5565991;32;34626;-70
2023/01/20 07:16:31;;;;;;;;;;;;;;;1.84;100.00;99628.63;5552633;32;33973;-71
2023/01/20 07:19:37;;;;;;;;;;;;;;;1.75;100.00;99626.81;5566253;32;34883;-71
2023/01/20 07:22:41;;;;;;;;;;;;;;;1.67;100.00;99635.31;5566588;32;35069;-70
2023/01/20 07:25:56;;;;;;;;;;;;;;;1.77;100.00;99643.22;5566920;32;34170;-70
2023/01/20 07:29:00;;;;;;;;;;;;;;;1.78;100.00;99644.88;5567375;32;34087;-71
2023/01/20 07:32:05;;;;;;;;;;;;;;;1.76;100.00;99649.38;5553473;32;33121;-70
2023/01/20 07:35:10;;;;;;;;;;;;;;;1.87;100.00;99648.50;5552642;32;35093;-70
2023/01/20 07:38:14;;;;;;;;;;;;;;;1.87;100.00;99644.09;5566350;32;34613;-70
2023/01/20 07:41:18;;;;;;;;;;;;;;;1.96;100.00;99650.31;5552357;32;35521;-70
2023/01/20 07:44:23;;;;;;;;;;;;;;;1.86;100.00;99654.66;5553285;32;34175;-70
2023/01/20 07:47:27;;;;;;;;;;;;;;;1.96;100.00;99656.38;5551761;32;34613;-70
2023/01/20 07:50:31;;;;;;;;;;;;;;;1.90;100.00;99650.84;5566903;32;35572;-69
2023/01/20 07:53:39;;;;;;;;;;;;;;;1.86;100.00;99655.50;5553198;32;33687;-71
2023/01/20 07:56:43;;;;;;;;;;;;;;;1.86;100.00;99654.66;5565677;31;34179;-71
2023/01/20 07:59:50;;;;;;;;;;;;;;;1.79;100.00;99662.22;5552771;32;34900;-71
2023/01/20 08:02:55;;;;;;;;;;;;;;;1.60;100.00;99669.94;5567105;32;34937;-72
2023/01/20 08:06:01;;;;;;;;;;;;;;;1.50;100.00;99667.25;5566388;32;34735;-72
2023/01/20 08:09:07;;;;;;;;;;;;;;;1.51;100.00;99670.69;5552601;32;34541;-70
2023/01/20 08:12:11;;;;;;;;;;;;;;;1.67;100.00;99677.16;5566220;32;34170;-72
2023/01/20 08:15:15;;;;;;;;;;;;;;;1.70;100.00;99679.50;5566716;32;35263;-71
2023/01/20 08:18:21;;;;;;;;;;;;;;;1.66;100.00;99678.09;5552880;32;34516;-71
2023/01/20 08:21:31;;;;;;;;;;;;;;;1.78;100.00;99678.03;5566665;32;34900;-71
2023/01/20 08:24:35;;;;;;;;;;;;;;;1.61;100.00;99677.66;5566269;32;34580;-71
2023/01/20 08:27:40;;;;;;;;;;;;;;;1.52;100.00;99681.03;5566533;32;34356;-72
2023/01/20 08:30:45;;;;;;;;;;;;;;;1.59;100.00;99682.19;5552937;32;35083;-71
2023/01/20 08:33:54;;;;;;;;;;;;;;;1.58;100.00;99677.09;5566366;32;34281;-71
2023/01/20 08:36:59;;;;;;;;;;;;;;;1.65;100.00;99684.28;5540185;32;34082;-71
2023/01/20 08:40:07;;;;;;;;;;;;;;;1.77;100.00;99681.59;5564838;32;34397;-71
2023/01/20 08:43:14;;;;;;;;;;;;;;;1.75;100.00;99686.94;5553322;32;34579;-71
2023/01/20 08:46:19;;;;;;;;;;;;;;;1.70;100.00;99678.66;5552931;32;35526;-72
2023/01/20 08:49:24;;;;;;;;;;;;;;;1.73;100.00;99681.03;5566087;32;34544;-71
2023/01/20 08:52:27;;;;;;;;;;;;;;;1.84;100.00;99688.78;5552226;32;33846;-71
2023/01/20 08:55:31;;;;;;;;;;;;;;;1.91;100.00;99684.72;5550468;32;34274;-71
2023/01/20 08:58:36;;;;;;;;;;;;;;;2.00;100.00;99690.94;5564714;32;34486;-71
2023/01/20 09:01:42;;;;;;;;;;;;;;;1.97;100.00;99686.81;5564931;32;34461;-71
2023/01/20 09:04:48;;;;;;;;;;;;;;;2.03;100.00;99691.50;5565658;32;35128;-71
2023/01/20 09:07:54;;;;;;;;;;;;;;;2.12;100.00;99689.91;5566053;32;35350;-71
2023/01/20 09:11:08;;;;;;;;;;;;;;;2.07;100.00;99692.09;5565125;32;34582;-71
2023/01/20 09:14:13;;;;;;;;;;;;;;;2.15;100.00;99697.50;5565759;32;34579;-71
2023/01/20 09:17:18;;;;;;;;;;;;;;;2.11;100.00;99696.94;5566122;32;34614;-71
2023/01/20 09:20:24;;;;;;;;;;;;;;;2.10;100.00;99692.66;5568743;32;34484;-71
2023/01/20 09:23:28;;;;;;;;;;;;;;;2.11;100.00;99683.84;5557825;32;34542;-72
2023/01/20 09:26:39;;;;;;;;;;;;;;;2.08;100.00;99685.91;5568346;32;34945;-71
2023/01/20 09:29:44;;;;;;;;;;;;;;;2.15;100.00;99681.78;5551907;32;34550;-72
2023/01/20 09:32:51;;;;;;;;;;;;;;;2.13;100.00;99666.22;5553009;32;34603;-72
2023/01/20 09:35:56;;;;;;;;;;;;;;;2.15;100.00;99656.47;5548251;32;34949;-72
2023/01/20 09:46:09;;;;;;;;;;;;;;;2.15;100.00;99635.53;5548928;32;34256;-72
2023/01/20 09:53:04;;;;;;;;;;;;;;;2.32;100.00;99638.47;5567997;32;34879;-71
2023/01/20 09:56:10;;;;;;;;;;;;;;;2.26;100.00;99636.38;5567653;32;34517;-71
2023/01/20 09:59:20;;;;;;;;;;;;;;;2.24;100.00;99631.28;5567049;32;34399;-72
2023/01/20 10:02:29;;;;;;;;;;;;;;;2.29;100.00;99620.41;5567453;32;34626;-71
2023/01/20 10:05:36;;;;;;;;;;;;;;;2.35;100.00;99614.66;5554292;32;33350;-70
2023/01/20 10:08:47;;;;;;;;;;;;;;;2.27;100.00;99606.66;5568189;32;34492;-71
2023/01/20 10:12:13;;;;;;;;;;;;;;;2.27;100.00;99589.16;5568015;32;35278;-70
2023/01/20 10:15:23;;;;;;;;;;;;;;;2.32;100.00;99589.59;5553014;32;33541;-71
2023/01/20 10:18:28;;;;;;;;;;;;;;;2.31;100.00;99560.91;5554152;32;34285;-70
2023/01/20 10:21:39;;;;;;;;;;;;;;;2.49;100.00;99554.88;5567733;32;35072;-70
2023/01/20 10:25:05;;;;;;;;;;;;;;;2.70;100.00;99556.56;5554101;32;35172;-71
2023/01/20 10:28:19;;;;;;;;;;;;;;;2.71;100.00;99558.22;5553462;32;34282;-71
2023/01/20 10:31:25;;;;;;;;;;;;;;;2.72;100.00;99551.97;5553856;32;33837;-70
2023/01/20 10:34:35;;;;;;;;;;;;;;;2.80;100.00;99562.62;5554596;32;34496;-72
2023/01/20 10:37:39;;;;;;;;;;;;;;;2.98;100.00;99560.94;5567595;32;34274;-72
2023/01/20 10:40:52;;;;;;;;;;;;;;;3.11;100.00;99563.25;5567593;32;34458;-71
2023/01/20 10:43:58;;;;;;;;;;;;;;;3.12;100.00;99560.50;5567104;32;34987;-72
2023/01/20 10:47:30;;;;;;;;;;;;;;;3.15;100.00;99567.28;5541736;32;35246;-70
2023/01/20 10:50:35;;;;;;;;;;;;;;;3.30;100.00;99565.84;5531441;32;34513;-71
2023/01/20 10:53:48;;;;;;;;;;;;;;;3.50;100.00;99581.41;5567795;32;34733;-71
2023/01/20 10:56:54;;;;;;;;;;;;;;;3.51;100.00;99582.22;5567791;32;34522;-71
2023/01/20 11:00:00;;;;;;;;;;;;;;;3.57;100.00;99591.31;5566836;32;34937;-72
2023/01/20 11:03:05;;;;;;;;;;;;;;;3.51;100.00;99595.34;5553686;32;34957;-71
2023/01/20 11:06:19;;;;;;;;;;;;;;;3.20;100.00;99597.31;5553889;32;33700;-72
2023/01/20 11:09:32;;;;;;;;;;;;;;;3.42;100.00;99597.03;5552551;32;34359;-71
2023/01/20 11:12:39;;;;;;;;;;;;;;;3.52;100.00;99586.50;5547824;32;34961;-71
2023/01/20 11:15:45;;;;;;;;;;;;;;;3.44;100.00;99583.75;5548019;32;34583;-71
2023/01/20 11:19:01;;;;;;;;;;;;;;;3.21;100.00;99580.63;5562422;32;34589;-70
2023/01/20 11:22:19;;;;;;;;;;;;;;;3.37;100.00;99577.44;5567457;32;35116;-72
2023/01/20 11:25:25;;;;;;;;;;;;;;;3.49;100.00;99573.66;5567620;32;33780;-71
2023/01/20 11:28:36;;;;;;;;;;;;;;;3.44;100.00;99558.37;5553581;32;34497;-71
2023/01/20 11:31:43;;;;;;;;;;;;;;;3.35;100.00;99559.22;5567251;32;33984;-71
2023/01/20 11:34:53;;;;;;;;;;;;;;;3.23;100.00;99554.28;5552218;32;33867;-71
2023/01/20 11:38:18;;;;;;;;;;;;;;;3.09;100.00;99549.50;5566196;32;34619;-71
2023/01/20 11:41:27;;;;;;;;;;;;;;;3.08;100.00;99530.31;5565953;32;35273;-71
2023/01/20 11:44:32;;;;;;;;;;;;;;;3.09;100.00;99526.75;5566557;32;34666;-72
2023/01/20 11:47:37;;;;;;;;;;;;;;;3.07;100.00;99531.28;5553554;32;34592;-72
2023/01/20 11:50:40;;;;;;;;;;;;;;;2.84;100.00;99524.69;5553593;32;34992;-73
2023/01/20 11:53:45;;;;;;;;;;;;;;;2.78;100.00;99526.06;5566965;32;34459;-73
2023/01/20 11:56:53;;;;;;;;;;;;;;;2.57;100.00;99522.75;5553676;32;34700;-74
2023/01/20 11:59:58;;;;;;;;;;;;;;;2.46;100.00;99531.59;5553015;32;35225;-73
2023/01/20 12:03:14;;;;;;;;;;;;;;;2.47;100.00;99517.53;5551043;32;34686;-73
2023/01/20 12:06:22;;;;;;;;;;;;;;;2.41;100.00;99512.87;5566154;32;35193;-75
2023/01/20 12:09:32;;;;;;;;;;;;;;;2.42;100.00;99519.72;5566427;32;34353;-75
2023/01/20 12:12:52;;;;;;;;;;;;;;;2.43;100.00;99518.78;5566576;32;35028;-73
2023/01/20 12:16:00;;;;;;;;;;;;;;;2.38;100.00;99512.28;5540205;32;814096;-75
2023/01/20 12:19:09;;;;;;;;;;;;;;;2.47;100.00;99521.97;5555172;32;33983;-75
2023/01/20 12:22:16;;;;;;;;;;;;;;;2.42;100.00;99521.56;5566578;32;35080;-75
2023/01/20 12:25:26;;;;;;;;;;;;;;;2.41;100.00;99519.88;5565495;32;34902;-75
2023/01/20 12:28:32;;;;;;;;;;;;;;;2.35;100.00;99515.19;5565750;32;34588;-75
2023/01/20 12:31:36;;;;;;;;;;;;;;;2.40;100.00;99529.53;5566351;32;35416;-74
2023/01/20 12:34:40;;;;;;;;;;;;;;;2.42;100.00;99524.97;5563503;32;35211;-76
2023/01/20 12:38:05;;;;;;;;;;;;;;;2.39;100.00;99519.19;5553039;32;34995;-75
2023/01/20 12:41:15;;;;;;;;;;;;;;;2.33;100.00;99517.94;5552844;32;35141;-74
2023/01/20 12:44:22;;;;;;;;;;;;;;;2.34;100.00;99519.59;5565344;32;33472;-74
2023/01/20 12:47:44;;;;;;;;;;;;;;;2.28;100.00;99508.84;5552507;32;33921;-76
2023/01/20 12:50:48;;;;;;;;;;;;;;;2.30;100.00;99523.44;5565883;32;34357;-76
2023/01/20 12:54:05;;;;;;;;;;;;;;;2.23;100.00;99524.16;5568396;32;34609;-76
2023/01/20 12:57:09;;;;;;;;;;;;;;;2.12;100.00;99518.06;5555218;32;34528;-77
2023/01/20 13:00:22;;;;;;;;;;;;;;;2.01;100.00;99526.03;5567574;32;34643;-75
2023/01/20 13:03:36;;;;;;;;;;;;;;;2.07;100.00;99528.09;5557029;32;34346;-77
2023/01/20 13:06:52;;;;;;;;;;;;;;;2.05;100.00;99535.25;5568927;32;34368;-75
2023/01/20 13:10:08;;;;;;;;;;;;;;;1.91;100.00;99538.25;5569432;32;34813;-76
2023/01/20 13:13:31;;;;;;;;;;;;;;;1.71;100.00;99539.13;5555221;32;34404;-78
2023/01/20 13:16:35;;;;;;;;;;;;;;;1.69;100.00;99538.47;5554601;32;34736;-76
2023/01/20 13:19:40;;;;;;;;;;;;;;;1.55;100.00;99544.84;5568438;32;35078;-77
2023/01/20 13:22:44;;;;;;;;;;;;;;;1.44;100.00;99541.50;5555014;32;34468;-76
2023/01/20 13:25:50;;;;;;;;;;;;;;;1.31;100.00;99552.16;5566222;32;35159;-77
2023/01/20 13:28:55;;;;;;;;;;;;;;;1.21;100.00;99553.91;5554557;32;34539;-76
2023/01/20 13:32:00;;;;;;;;;;;;;;;1.11;100.00;99555.62;5568157;32;35639;-75
2023/01/20 13:35:14;;;;;;;;;;;;;;;1.02;100.00;99557.19;5555022;32;34529;-75
2023/01/20 13:38:18;;;;;;;;;;;;;;;0.98;100.00;99547.97;5568829;32;34358;-75
2023/01/20 13:41:55;;;;;;;;;;;;;;;0.90;100.00;99549.56;5554587;32;34995;-75
2023/01/20 13:45:12;;;;;;;;;;;;;;;0.79;100.00;99545.22;5521606;32;34464;-75
2023/01/20 13:48:24;;;;;;;;;;;;;;;0.72;100.00;99552.75;5567732;32;34347;-75
2023/01/20 13:51:35;;;;;;;;;;;;;;;0.59;100.00;99544.25;5554594;32;34518;-76
2023/01/20 13:54:42;;;;;;;;;;;;;;;0.55;100.00;99553.28;5568070;32;34277;-76
2023/01/20 13:57:47;;;;;;;;;;;;;;;0.48;100.00;99553.91;5568373;32;34431;-76
2023/01/20 14:01:05;;;;;;;;;;;;;;;0.44;100.00;99542.88;5568293;32;35187;-74
2023/01/20 14:04:20;;;;;;;;;;;;;;;0.35;100.00;99549.66;5567766;32;35272;-74
2023/01/20 14:07:31;;;;;;;;;;;;;;;0.28;100.00;99566.78;5554318;32;34401;-75
2023/01/20 14:10:39;;;;;;;;;;;;;;;0.25;100.00;99564.41;5554597;32;34836;-75
2023/01/20 14:13:53;;;;;;;;;;;;;;;0.24;100.00;99567.16;5567961;32;34879;-74
2023/01/20 14:16:57;;;;;;;;;;;;;;;0.20;100.00;99563.94;5567732;32;34540;-75
2023/01/20 14:20:01;;;;;;;;;;;;;;;0.20;100.00;99569.16;5554354;32;35043;-74
2023/01/20 14:23:25;;;;;;;;;;;;;;;0.18;100.00;99576.28;5566901;32;34938;-77
2023/01/20 14:26:31;;;;;;;;;;;;;;;0.23;100.00;99570.69;5567905;32;34018;-77
2023/01/20 14:29:34;;;;;;;;;;;;;;;0.17;100.00;99574.63;5554135;32;35733;-74
2023/01/20 14:32:38;;;;;;;;;;;;;;;0.20;100.00;99576.13;5554196;32;34543;-77
2023/01/20 14:35:44;;;;;;;;;;;;;;;0.16;100.00;99569.50;5554416;32;34448;-74
2023/01/20 14:38:50;;;;;;;;;;;;;;;0.11;100.00;99575.09;5568112;32;35086;-74
2023/01/20 14:42:01;;;;;;;;;;;;;;;0.09;100.00;99586.62;5529290;31;33447;-76
2023/01/20 14:45:16;;;;;;;;;;;;;;;0.05;100.00;99582.59;5566898;32;35167;-73
2023/01/20 14:48:23;;;;;;;;;;;;;;;0.13;100.00;99590.63;5553367;32;33693;-76
2023/01/20 14:51:37;;;;;;;;;;;;;;;0.13;100.00;99590.63;5540681;32;34378;-76
2023/01/20 14:54:43;;;;;;;;;;;;;;;0.02;100.00;99585.41;5540663;32;33948;-76
2023/01/20 14:57:48;;;;;;;;;;;;;;;0.08;100.00;99598.81;5553279;32;34703;-76
2023/01/20 15:00:57;;;;;;;;;;;;;;;0.00;100.00;99583.75;5540822;32;34386;-74
2023/01/20 15:04:02;;;;;;;;;;;;;;;-0.11;100.00;99591.63;5567496;32;34398;-74
2023/01/20 15:07:14;;;;;;;;;;;;;;;-0.10;100.00;99584.63;5553353;32;35056;-74
2023/01/20 15:10:21;;;;;;;;;;;;;;;-0.07;100.00;99587.81;5567735;31;34486;-74
2023/01/20 15:13:26;;;;;;;;;;;;;;;-0.09;100.00;99600.13;5560400;32;34075;-75
2023/01/20 15:16:43;;;;;;;;;;;;;;;-0.15;100.00;99605.84;5552668;32;35286;-74
2023/01/20 15:19:48;;;;;;;;;;;;;;;-0.10;100.00;99608.88;5564036;32;34710;-74
2023/01/20 15:22:53;;;;;;;;;;;;;;;-0.09;100.00;99607.94;5540972;32;33475;-74
2023/01/20 15:26:16;;;;;;;;;;;;;;;-0.14;100.00;99604.87;5566690;32;35134;-74
2023/01/20 15:29:20;;;;;;;;;;;;;;;-0.12;100.00;99610.81;5554688;32;34435;-74
2023/01/20 15:32:25;;;;;;;;;;;;;;;-0.10;100.00;99608.88;5567182;32;34297;-73
2023/01/20 15:35:29;;;;;;;;;;;;;;;-0.13;100.00;99611.75;5567102;32;34950;-74
2023/01/20 15:38:35;;;;;;;;;;;;;;;-0.06;100.00;99607.72;5560290;31;34564;-75
2023/01/20 15:41:40;;;;;;;;;;;;;;;-0.07;100.00;99611.28;5560254;31;34831;-74
2023/01/20 15:44:46;;;;;;;;;;;;;;;-0.09;100.00;99620.97;5573230;31;35061;-73
2023/01/20 15:47:52;;;;;;;;;;;;;;;-0.08;100.00;99624.41;5586995;31;34320;-73
2023/01/20 15:50:58;;;;;;;;;;;;;;;-0.09;100.00;99618.38;5554907;32;35194;-73
2023/01/20 15:54:06;;;;;;;;;;;;;;;-0.09;100.00;99627.97;5550543;31;33694;-74
2023/01/20 15:57:14;;;;;;;;;;;;;;;-0.15;100.00;99613.66;5566395;32;34534;-73
2023/01/20 16:00:20;;;;;;;;;;;;;;;-0.14;100.00;99624.88;5565662;32;34356;-73
2023/01/20 16:03:26;;;;;;;;;;;;;;;-0.20;100.00;99622.78;5566456;32;34921;-73
2023/01/20 16:06:32;;;;;;;;;;;;;;;-0.23;100.00;99633.41;5553373;32;33980;-73
2023/01/20 16:09:38;;;;;;;;;;;;;;;-0.20;100.00;99625.38;5553272;32;34566;-73
2023/01/20 16:12:44;;;;;;;;;;;;;;;-0.18;100.00;99629.50;5553094;32;34409;-73
2023/01/20 16:15:50;;;;;;;;;;;;;;;-0.17;100.00;99636.41;5566389;32;34474;-73
2023/01/20 16:18:57;;;;;;;;;;;;;;;-0.11;100.00;99638.53;5564554;32;35073;-73
2023/01/20 16:22:05;;;;;;;;;;;;;;;-0.20;100.00;99639.25;5555615;32;34493;-74
2023/01/20 16:25:11;;;;;;;;;;;;;;;-0.21;100.00;99631.53;5540099;32;34466;-74
2023/01/20 16:28:20;;;;;;;;;;;;;;;-0.24;100.00;99635.19;5568991;32;35077;-72
2023/01/20 16:31:27;;;;;;;;;;;;;;;-0.31;100.00;99618.38;5564489;32;34407;-74